Time;durP1;ratioP1;P1;durP2;ratioP2;P2;SDS_P1;SDS_P2;PMS_P1;PMS_P2;Temp;Humidity;BMP_temperature;BMP_pressure;BME280_temperature;BME280_humidity;BME280_pressure;Samples;Min_cycle;Max_cycle;Signal;HPM_P1;HPM_P2
2021/10/09 00:01:08;;;;;;;7.45;6.45;;;16.30;81.70;;;;;;4835807;29;20098;-77
2021/10/09 00:03:34;;;;;;;8.35;6.82;;;16.30;81.70;;;;;;4841192;29;20033;-79
2021/10/09 00:06:00;;;;;;;8.55;7.35;;;16.30;81.70;;;;;;4837593;29;20175;-77
2021/10/09 00:08:26;;;;;;;8.18;7.30;;;16.30;82.10;;;;;;4837036;29;20041;-78
2021/10/09 00:10:52;;;;;;;8.88;7.07;;;16.30;81.80;;;;;;4837419;29;20107;-77
2021/10/09 00:13:19;;;;;;;8.20;6.55;;;16.20;81.60;;;;;;4837033;29;20065;-76
2021/10/09 00:15:47;;;;;;;8.65;6.50;;;16.20;81.60;;;;;;4836797;29;20034;-77
2021/10/09 00:18:13;;;;;;;10.32;7.20;;;16.20;81.70;;;;;;4852010;29;20509;-78
2021/10/09 00:20:39;;;;;;;8.63;7.05;;;16.20;81.70;;;;;;4835718;29;20080;-77
2021/10/09 00:23:05;;;;;;;9.02;6.90;;;16.20;81.70;;;;;;4837166;29;20066;-78
2021/10/09 00:25:31;;;;;;;8.70;6.85;;;16.20;81.80;;;;;;4836810;29;20041;-78
2021/10/09 00:27:57;;;;;;;8.23;6.63;;;16.10;81.60;;;;;;4837005;29;20436;-78
2021/10/09 00:30:24;;;;;;;8.38;6.75;;;16.10;81.70;;;;;;4835350;29;20065;-77
2021/10/09 00:32:50;;;;;;;8.65;6.85;;;16.10;81.70;;;;;;4835675;29;20045;-78
2021/10/09 00:35:16;;;;;;;9.15;7.03;;;16.10;81.80;;;;;;4837267;29;20041;-78
2021/10/09 00:37:42;;;;;;;10.80;7.10;;;16.10;81.80;;;;;;4861326;29;20045;-79
2021/10/09 00:40:08;;;;;;;8.88;7.22;;;16.10;81.90;;;;;;4838515;29;20470;-80
2021/10/09 00:42:35;;;;;;;7.45;6.50;;;16.10;81.90;;;;;;4835206;29;20056;-78
2021/10/09 00:45:01;;;;;;;9.63;7.28;;;16.10;82.00;;;;;;4835035;29;20034;-78
2021/10/09 00:47:27;;;;;;;8.75;7.40;;;16.10;82.00;;;;;;4848634;29;20439;-78
2021/10/09 00:49:52;;;;;;;8.10;6.35;;;16.00;81.90;;;;;;4838773;29;20037;-78
2021/10/09 00:52:19;;;;;;;9.80;6.20;;;16.00;82.00;;;;;;4836690;29;20045;-78
2021/10/09 00:54:47;;;;;;;7.57;6.18;;;16.00;82.00;;;;;;4834940;29;20040;-78
2021/10/09 00:57:16;;;;;;;8.52;6.70;;;16.00;82.00;;;;;;4836358;29;20037;-78
2021/10/09 00:59:43;;;;;;;11.93;8.00;;;16.10;82.30;;;;;;4848177;29;20069;-80
2021/10/09 01:02:10;;;;;;;9.88;7.13;;;16.00;82.10;;;;;;4853953;29;20635;-82
2021/10/09 01:04:37;;;;;;;7.95;7.15;;;16.00;82.10;;;;;;4837626;29;20041;-80
2021/10/09 01:07:05;;;;;;;8.25;7.25;;;16.00;82.20;;;;;;4853510;29;20075;-81
2021/10/09 01:09:32;;;;;;;8.65;7.20;;;16.00;82.20;;;;;;4841707;29;20107;-78
2021/10/09 01:12:00;;;;;;;9.07;7.05;;;16.00;82.30;;;;;;4834513;29;20042;-78
2021/10/09 01:14:27;;;;;;;10.55;7.65;;;16.00;82.30;;;;;;4834752;29;20045;-78
2021/10/09 01:16:53;;;;;;;11.85;7.93;;;16.00;82.30;;;;;;4843334;29;20516;-79
2021/10/09 01:19:19;;;;;;;10.07;7.22;;;16.00;82.40;;;;;;4852643;29;20041;-78
2021/10/09 01:21:50;;;;;;;8.98;7.93;;;16.00;82.40;;;;;;4838058;29;20048;-78
2021/10/09 01:24:19;;;;;;;10.38;8.38;;;16.00;82.40;;;;;;4853079;29;20513;-78
2021/10/09 01:26:47;;;;;;;11.00;8.02;;;16.00;82.50;;;;;;4853956;29;20665;-79
2021/10/09 01:29:16;;;;;;;12.80;7.68;;;16.00;82.50;;;;;;4852937;29;20394;-78
2021/10/09 01:31:46;;;;;;;9.73;8.05;;;16.00;82.50;;;;;;4835369;29;20427;-82
2021/10/09 01:34:27;;;;;;;11.52;8.43;;;16.00;82.50;;;;;;4858973;29;20038;-79
2021/10/09 01:36:59;;;;;;;;;;;16.00;82.60;;;;;;4838647;29;20058;-83
2021/10/09 01:39:28;;;;;;;10.32;7.75;;;16.00;82.50;;;;;;4844002;29;19913;-87
2021/10/09 01:41:55;;;;;;;8.77;7.50;;;16.00;82.40;;;;;;4837046;29;20048;-81
2021/10/09 01:44:26;;;;;;;9.75;8.75;;;16.00;82.50;;;;;;4837060;29;20486;-86
2021/10/09 01:46:55;;;;;;;10.00;7.78;;;16.00;82.60;;;;;;4851691;29;20046;-78
2021/10/09 01:49:22;;;;;;;12.93;8.45;;;16.00;82.60;;;;;;4842730;29;20038;-81
2021/10/09 01:51:50;;;;;;;10.27;8.57;;;16.00;82.70;;;;;;4839185;29;20380;-79
2021/10/09 01:54:16;;;;;;;11.02;9.25;;;15.90;82.60;;;;;;4839785;29;20034;-84
2021/10/09 01:56:42;;;;;;;10.48;8.43;;;16.00;82.80;;;;;;4841122;29;20038;-82
2021/10/09 01:59:09;;;;;;;10.10;7.43;;;15.90;82.60;;;;;;4856134;29;20037;-82
2021/10/09 02:01:41;;;;;;;9.73;8.43;;;15.90;82.60;;;;;;4840229;29;20046;-81
2021/10/09 02:04:07;;;;;;;10.27;8.30;;;15.90;82.60;;;;;;4839299;29;20406;-81
2021/10/09 02:06:38;;;;;;;10.43;7.88;;;15.90;82.70;;;;;;4854372;29;20046;-79
2021/10/09 02:09:04;;;;;;;11.10;8.30;;;15.90;82.70;;;;;;4854520;29;20034;-79
2021/10/09 02:11:41;;;;;;;9.73;7.43;;;15.90;82.70;;;;;;4840232;29;20124;-85
2021/10/09 02:25:28;;;;;;;14.10;9.98;;;15.90;82.80;;;;;;4857387;29;20037;-88
2021/10/09 02:27:58;;;;;;;13.02;9.23;;;15.90;82.90;;;;;;4859055;29;20037;-90
2021/10/09 02:30:24;;;;;;;11.07;8.45;;;15.80;82.80;;;;;;4858742;29;20038;-82
2021/10/09 02:32:51;;;;;;;14.90;10.43;;;15.90;82.90;;;;;;4859033;29;20076;-85
2021/10/09 02:35:18;;;;;;;13.35;8.90;;;15.80;82.80;;;;;;4861682;29;20029;-83
2021/10/09 02:37:44;;;;;;;13.80;10.50;;;15.90;83.00;;;;;;4862253;29;20093;-78
2021/10/09 02:40:12;;;;;;;14.50;12.10;;;15.80;82.90;;;;;;4860473;29;20037;-78
2021/10/09 02:42:40;;;;;;;16.17;11.25;;;15.80;83.00;;;;;;4860583;29;20054;-83
2021/10/09 02:45:06;;;;;;;15.20;10.38;;;15.80;83.00;;;;;;4847149;29;20033;-81
2021/10/09 02:47:33;;;;;;;10.88;9.60;;;15.80;83.00;;;;;;4858424;29;20498;-87
2021/10/09 02:49:59;;;;;;;16.17;10.30;;;15.80;83.00;;;;;;4858513;29;20532;-88
2021/10/09 02:52:25;;;;;;;15.00;11.43;;;15.80;83.10;;;;;;4859230;29;20026;-93
2021/10/09 02:54:53;;;;;;;18.50;12.32;;;15.80;83.10;;;;;;4842953;29;20090;-78
2021/10/09 02:57:19;;;;;;;17.88;11.75;;;15.80;83.10;;;;;;4857433;29;20133;-80
2021/10/09 02:59:45;;;;;;;19.45;12.90;;;15.80;83.20;;;;;;4858431;29;20033;-86
2021/10/09 03:02:14;;;;;;;19.90;12.82;;;15.80;83.20;;;;;;4844147;29;20491;-91
2021/10/09 03:04:41;;;;;;;20.52;13.80;;;15.80;83.20;;;;;;4859078;29;20030;-86
2021/10/09 03:07:08;;;;;;;17.25;13.13;;;15.80;83.20;;;;;;4843712;29;20086;-88
2021/10/09 03:09:35;;;;;;;24.10;13.25;;;15.80;83.20;;;;;;4858846;29;20122;-85
2021/10/09 03:12:01;;;;;;;21.88;14.60;;;15.80;83.70;;;;;;4844244;29;20394;-82
2021/10/09 03:14:31;;;;;;;20.95;14.25;;;15.80;83.30;;;;;;4857173;29;20499;-81
2021/10/09 03:16:57;;;;;;;21.10;14.05;;;15.80;83.20;;;;;;4852700;29;20711;-86
2021/10/09 03:19:23;;;;;;;19.40;12.95;;;15.80;83.30;;;;;;4861376;29;20044;-85
2021/10/09 03:21:51;;;;;;;23.13;14.32;;;15.80;83.30;;;;;;4861767;29;20045;-91
2021/10/09 03:24:17;;;;;;;21.70;16.02;;;15.80;83.30;;;;;;4862062;29;20044;-94
2021/10/09 03:26:43;;;;;;;21.88;14.90;;;15.80;83.50;;;;;;4861847;29;20190;-93
2021/10/09 03:29:10;;;;;;;23.00;15.38;;;15.80;83.30;;;;;;4846403;29;20492;-88
2021/10/09 03:31:37;;;;;;;23.80;16.33;;;15.80;83.40;;;;;;4860238;29;20037;-87
2021/10/09 03:34:03;;;;;;;22.27;15.23;;;15.80;83.40;;;;;;4861895;29;20032;-86
2021/10/09 03:36:29;;;;;;;25.35;15.48;;;15.80;83.40;;;;;;4863174;29;20037;-89
2021/10/09 03:38:55;;;;;;;21.50;14.10;;;15.70;83.20;;;;;;4861848;29;20034;-88
2021/10/09 03:41:24;;;;;;;19.75;13.45;;;15.80;83.40;;;;;;4861737;29;20069;-86
2021/10/09 03:43:50;;;;;;;23.27;14.02;;;15.80;83.50;;;;;;4861866;29;20037;-86
2021/10/09 03:53:37;;;;;;;20.42;14.50;;;15.70;83.40;;;;;;4862372;29;20060;-85
2021/10/09 03:56:04;;;;;;;23.27;15.32;;;15.70;83.40;;;;;;4860817;29;20044;-84
2021/10/09 03:58:36;;;;;;;23.10;15.68;;;15.80;83.60;;;;;;4860971;29;20033;-88
2021/10/09 04:01:04;;;;;;;22.02;15.02;;;15.70;83.40;;;;;;4860558;29;20092;-83
2021/10/09 04:03:30;;;;;;;24.55;15.82;;;15.70;83.40;;;;;;4844284;29;20039;-79
2021/10/09 04:05:56;;;;;;;21.30;15.38;;;15.70;83.50;;;;;;4844102;29;20034;-85
2021/10/09 04:08:22;;;;;;;21.17;14.13;;;15.80;83.70;;;;;;4861598;29;20034;-84
2021/10/09 04:10:50;;;;;;;25.38;15.20;;;15.70;83.50;;;;;;4859521;29;20117;-83
2021/10/09 04:13:16;;;;;;;21.05;15.30;;;15.70;83.50;;;;;;4859950;29;20100;-87
2021/10/09 04:15:43;;;;;;;19.85;13.70;;;15.70;84.00;;;;;;4860274;29;20033;-88
2021/10/09 04:18:09;;;;;;;23.50;15.55;;;15.70;83.50;;;;;;4858963;29;20037;-85
2021/10/09 04:20:38;;;;;;;19.92;13.65;;;15.70;83.50;;;;;;4859434;29;20034;-78
2021/10/09 04:23:05;;;;;;;26.58;16.52;;;15.70;83.50;;;;;;4859571;29;20109;-84
2021/10/09 04:25:33;;;;;;;24.42;15.30;;;15.70;83.50;;;;;;4859465;29;20037;-85
2021/10/09 04:28:01;;;;;;;24.05;15.15;;;15.70;83.50;;;;;;4860127;29;20037;-91
2021/10/09 04:30:29;;;;;;;21.40;14.80;;;15.70;83.50;;;;;;4860463;29;20040;-84
2021/10/09 04:32:55;;;;;;;23.63;14.82;;;15.70;83.60;;;;;;4860827;29;20061;-90
2021/10/09 04:35:21;;;;;;;21.35;15.02;;;15.70;83.60;;;;;;4861308;29;20497;-85
2021/10/09 04:37:49;;;;;;;23.00;15.38;;;15.70;83.70;;;;;;4859246;29;20037;-78
2021/10/09 04:40:15;;;;;;;21.55;14.88;;;15.70;83.70;;;;;;4859631;29;20527;-88
2021/10/09 04:42:43;;;;;;;23.90;16.65;;;15.70;83.70;;;;;;4860491;29;20049;-90
2021/10/09 04:45:10;;;;;;;22.40;14.70;;;15.60;83.50;;;;;;4860237;29;20037;-89
2021/10/09 04:47:41;;;;;;;23.48;15.60;;;15.60;83.50;;;;;;4855835;29;20053;-83
2021/10/09 04:50:08;;;;;;;30.10;15.98;;;15.60;83.60;;;;;;4857687;29;20037;-89
2021/10/09 04:52:34;;;;;;;22.45;14.75;;;15.60;83.60;;;;;;4840744;29;20030;-79
2021/10/09 04:55:00;;;;;;;19.38;13.73;;;15.60;83.60;;;;;;4855841;29;20049;-85
2021/10/09 04:57:26;;;;;;;18.20;13.48;;;15.60;83.60;;;;;;4853683;29;20034;-84
2021/10/09 04:59:53;;;;;;;23.52;14.77;;;15.60;83.60;;;;;;4837799;29;20038;-88
2021/10/09 05:02:21;;;;;;;20.00;14.38;;;15.60;83.60;;;;;;4837343;29;20042;-78
2021/10/09 05:04:47;;;;;;;22.45;13.88;;;15.60;83.60;;;;;;4853539;29;20041;-78
2021/10/09 05:07:13;;;;;;;22.90;15.98;;;15.60;83.60;;;;;;4853230;29;20042;-78
2021/10/09 05:09:42;;;;;;;20.38;14.25;;;15.50;83.50;;;;;;4820665;29;20066;-79
2021/10/09 05:12:09;;;;;;;25.15;15.75;;;15.50;83.50;;;;;;4834827;29;20049;-78
2021/10/09 05:14:36;;;;;;;20.60;14.85;;;15.50;83.40;;;;;;4835770;29;20504;-87
2021/10/09 05:17:02;;;;;;;22.52;14.75;;;15.50;83.50;;;;;;4845288;29;20034;-85
2021/10/09 05:19:29;;;;;;;24.48;15.63;;;15.50;83.40;;;;;;4854761;29;20057;-88
2021/10/09 05:21:55;;;;;;;22.30;16.88;;;15.50;83.40;;;;;;4854367;29;20041;-83
2021/10/09 05:24:21;;;;;;;24.73;17.23;;;15.40;83.20;;;;;;4837059;29;20030;-86
2021/10/09 05:26:47;;;;;;;21.45;15.77;;;15.40;83.30;;;;;;4835655;29;20061;-86
2021/10/09 05:29:18;;;;;;;23.15;16.67;;;15.40;83.30;;;;;;4835910;29;20482;-87
2021/10/09 05:31:47;;;;;;;23.85;17.38;;;15.40;83.30;;;;;;4836747;29;20398;-89
2021/10/09 05:34:13;;;;;;;29.48;18.23;;;15.40;83.30;;;;;;4854573;29;20030;-86
2021/10/09 05:36:40;;;;;;;27.75;18.60;;;15.40;83.30;;;;;;4854294;29;20084;-89
2021/10/09 05:39:07;;;;;;;25.42;19.80;;;15.40;83.40;;;;;;4840147;29;20052;-89
2021/10/09 05:41:35;;;;;;;29.70;20.33;;;15.30;83.20;;;;;;4837669;29;20536;-82
2021/10/09 05:44:05;;;;;;;26.58;21.02;;;15.30;83.20;;;;;;4860606;29;20030;-78
2021/10/09 05:46:33;;;;;;;27.88;19.63;;;15.30;83.20;;;;;;4850425;29;20033;-84
2021/10/09 05:48:59;;;;;;;36.47;23.48;;;15.30;83.20;;;;;;4864664;29;20034;-85
2021/10/09 05:51:31;;;;;;;26.67;21.02;;;15.30;83.20;;;;;;4854917;29;20105;-84
2021/10/09 05:54:16;;;;;;;31.83;21.48;;;15.30;83.20;;;;;;4838428;29;20141;-76
2021/10/09 06:43:19;;;;;;;25.60;18.15;;;14.90;82.80;;;;;;4847578;29;20033;-79
2021/10/09 06:59:51;;;;;;;24.10;18.10;;;14.90;82.60;;;;;;4835912;29;20311;-81
2021/10/09 07:02:17;;;;;;;26.50;20.35;;;14.80;82.30;;;;;;4846746;29;20073;-81
2021/10/09 07:04:43;;;;;;;26.80;19.70;;;14.90;82.40;;;;;;4850633;29;20071;-80
2021/10/09 07:07:15;;;;;;;28.50;20.77;;;14.80;82.30;;;;;;4847047;29;20089;-80
2021/10/09 07:09:52;;;;;;;28.17;21.83;;;14.80;82.20;;;;;;4837136;29;20073;-85
2021/10/09 07:12:21;;;;;;;26.85;21.17;;;14.80;82.10;;;;;;4839963;29;20482;-79
2021/10/09 07:14:47;;;;;;;29.33;21.50;;;14.80;82.10;;;;;;4854765;29;20068;-81
2021/10/09 07:17:14;;;;;;;33.03;22.30;;;14.80;82.00;;;;;;4854864;29;20037;-80
2021/10/09 07:19:41;;;;;;;27.83;21.23;;;14.80;82.00;;;;;;4836562;29;20498;-79
2021/10/09 07:22:07;;;;;;;28.13;21.92;;;14.80;82.00;;;;;;4835872;29;20540;-79
2021/10/09 07:24:37;;;;;;;33.10;24.90;;;14.80;82.10;;;;;;4838681;29;20040;-78
2021/10/09 07:27:03;;;;;;;30.23;23.60;;;14.80;82.10;;;;;;4836351;29;20085;-78
2021/10/09 07:29:29;;;;;;;29.83;24.50;;;14.80;82.10;;;;;;4837476;29;20229;-78
2021/10/09 07:31:55;;;;;;;27.05;22.25;;;14.80;82.10;;;;;;4836302;29;20046;-79
2021/10/09 07:34:21;;;;;;;31.23;24.25;;;14.80;82.10;;;;;;4838057;29;20242;-77
2021/10/09 07:36:47;;;;;;;28.33;22.67;;;14.80;82.10;;;;;;4837512;29;20034;-79
2021/10/09 07:39:13;;;;;;;31.35;24.63;;;14.80;82.00;;;;;;4857693;29;20041;-79
2021/10/09 07:41:39;;;;;;;30.75;25.35;;;14.80;82.00;;;;;;4838818;29;20072;-78
2021/10/09 07:44:05;;;;;;;27.60;23.05;;;14.80;82.10;;;;;;4864609;29;20034;-78
2021/10/09 07:46:31;;;;;;;28.10;23.27;;;14.80;82.10;;;;;;4837068;29;20081;-76
2021/10/09 07:48:57;;;;;;;29.45;23.30;;;14.80;82.10;;;;;;4848331;29;20186;-77
2021/10/09 07:51:23;;;;;;;29.50;24.38;;;14.80;82.00;;;;;;4855814;29;20450;-77
2021/10/09 07:53:49;;;;;;;28.55;24.17;;;14.90;82.30;;;;;;4841129;29;20073;-78
2021/10/09 07:56:15;;;;;;;27.90;22.50;;;14.80;82.00;;;;;;4845125;29;20089;-77
2021/10/09 07:58:41;;;;;;;28.80;24.58;;;14.80;82.00;;;;;;4843877;29;20863;-77
2021/10/09 08:01:07;;;;;;;27.27;23.52;;;14.80;82.00;;;;;;4844109;29;20066;-77
2021/10/09 08:03:33;;;;;;;27.73;22.10;;;14.90;82.10;;;;;;4849043;29;20038;-76
2021/10/09 08:05:59;;;;;;;27.90;23.40;;;14.90;82.10;;;;;;4846188;29;20113;-76
2021/10/09 08:08:25;;;;;;;28.02;22.02;;;14.90;82.00;;;;;;4847478;29;20538;-78
2021/10/09 08:10:51;;;;;;;33.90;24.05;;;14.90;82.00;;;;;;4855384;29;20120;-76
2021/10/09 08:13:18;;;;;;;29.20;24.35;;;14.90;81.90;;;;;;4855123;29;20164;-80
2021/10/09 08:15:45;;;;;;;28.70;23.27;;;14.90;81.90;;;;;;4854506;29;20062;-77
2021/10/09 08:18:12;;;;;;;30.48;24.17;;;15.00;82.00;;;;;;4848763;29;20078;-78
2021/10/09 08:20:40;;;;;;;27.10;23.02;;;15.00;82.00;;;;;;4836754;29;20065;-78
2021/10/09 08:23:10;;;;;;;29.10;25.60;;;15.00;81.90;;;;;;4837104;29;20042;-77
2021/10/09 08:41:11;;;;;;;29.10;24.55;;;15.10;81.80;;;;;;4836140;29;20073;-79
2021/10/09 08:43:41;;;;;;;26.98;23.27;;;15.10;81.80;;;;;;4836738;29;20030;-84
2021/10/09 08:46:07;;;;;;;27.83;23.77;;;15.10;81.80;;;;;;4836266;29;20044;-80
2021/10/09 08:48:40;;;;;;;29.23;24.70;;;15.20;81.90;;;;;;4829189;29;20538;-82
2021/10/09 08:51:07;;;;;;;29.27;25.30;;;15.20;81.90;;;;;;4835442;29;20526;-81
2021/10/09 08:53:41;;;;;;;28.52;25.10;;;15.30;82.10;;;;;;4860458;29;20066;-81
2021/10/09 08:56:08;;;;;;;29.67;25.58;;;15.30;82.00;;;;;;4837669;29;20046;-82
2021/10/09 08:58:40;;;;;;;29.98;25.38;;;15.30;82.00;;;;;;4840022;29;20029;-82
2021/10/09 09:01:22;;;;;;;30.75;25.60;;;15.30;81.90;;;;;;4843624;29;20109;-81
2021/10/09 09:06:57;;;;;;;28.33;25.20;;;15.40;82.20;;;;;;4845157;29;20040;-80
2021/10/09 09:35:01;;;;;;;31.25;26.02;;;15.70;82.00;;;;;;4858503;29;20185;-82
2021/10/09 09:40:11;;;;;;;31.20;26.00;;;15.80;82.00;;;;;;4835799;29;20033;-81
2021/10/09 09:42:51;;;;;;;28.23;24.73;;;15.80;81.90;;;;;;4839309;29;20135;-81
2021/10/09 09:45:25;;;;;;;32.58;25.23;;;15.80;81.90;;;;;;4853656;29;20269;-83
2021/10/09 09:47:57;;;;;;;29.45;24.75;;;15.90;81.90;;;;;;4853029;29;20068;-80
2021/10/09 09:50:24;;;;;;;27.83;24.52;;;15.90;81.90;;;;;;4853191;29;20040;-80
2021/10/09 09:52:50;;;;;;;28.05;25.10;;;15.90;81.80;;;;;;4847381;29;20525;-80
2021/10/09 09:55:18;;;;;;;27.95;25.05;;;15.90;81.70;;;;;;4835750;29;20187;-80
2021/10/09 09:57:44;;;;;;;28.77;25.67;;;16.00;81.90;;;;;;4835460;29;20568;-80
2021/10/09 10:00:13;;;;;;;28.10;24.17;;;16.00;81.80;;;;;;4835648;29;20093;-80
2021/10/09 10:02:53;;;;;;;28.15;25.25;;;16.10;81.90;;;;;;4834940;29;20406;-80
2021/10/09 10:05:22;;;;;;;29.33;26.20;;;16.10;81.80;;;;;;4834639;29;20450;-82
2021/10/09 10:07:48;;;;;;;26.70;23.83;;;16.10;81.70;;;;;;4838939;29;20112;-84
2021/10/09 10:10:17;;;;;;;28.58;25.60;;;16.20;81.70;;;;;;4847055;29;20033;-80
2021/10/09 10:12:46;;;;;;;29.33;26.20;;;16.20;81.60;;;;;;4839490;29;20442;-80
2021/10/09 10:15:13;;;;;;;30.95;27.65;;;16.20;81.50;;;;;;4854260;29;20072;-80
2021/10/09 10:17:46;;;;;;;30.20;25.98;;;16.30;82.10;;;;;;4850148;29;20060;-78
2021/10/09 10:20:17;;;;;;;25.83;23.23;;;16.30;81.40;;;;;;4835964;29;20478;-80
2021/10/09 10:22:43;;;;;;;28.52;23.88;;;16.30;81.30;;;;;;4821296;29;20129;-83
2021/10/09 10:25:15;;;;;;;28.17;23.23;;;16.30;81.20;;;;;;4835698;29;20110;-79
2021/10/09 10:27:41;;;;;;;26.52;23.83;;;16.40;81.20;;;;;;4827627;29;20046;-79
2021/10/09 10:30:16;;;;;;;25.67;22.35;;;16.40;81.10;;;;;;4851205;29;20044;-78
2021/10/09 10:32:54;;;;;;;26.63;23.77;;;16.40;80.90;;;;;;4848821;29;20044;-79
2021/10/09 10:35:40;;;;;;;26.23;23.42;;;16.50;81.00;;;;;;4834404;29;20034;-82
2021/10/09 10:38:11;;;;;;;27.10;23.25;;;16.50;80.90;;;;;;4836410;29;20034;-77
2021/10/09 10:40:55;;;;;;;26.75;23.55;;;16.60;81.00;;;;;;4850424;29;20476;-79
2021/10/09 10:43:36;;;;;;;25.05;22.02;;;16.60;80.80;;;;;;4852633;29;20049;-79
2021/10/09 10:51:44;;;;;;;25.35;20.90;;;16.70;80.60;;;;;;4847890;29;20528;-79
2021/10/09 10:57:03;;;;;;;23.83;21.30;;;16.80;80.40;;;;;;4838529;29;20038;-79
2021/10/09 11:00:11;;;;;;;24.40;21.42;;;16.80;80.30;;;;;;4838462;29;20038;-79
2021/10/09 11:02:39;;;;;;;24.55;21.95;;;16.80;80.20;;;;;;4837338;29;20054;-79
2021/10/09 11:05:14;;;;;;;25.40;21.60;;;16.90;80.30;;;;;;4838156;29;20034;-79
2021/10/09 11:07:42;;;;;;;25.25;22.55;;;16.90;80.20;;;;;;4837931;29;20044;-81
2021/10/09 11:10:19;;;;;;;22.75;20.25;;;17.00;80.30;;;;;;4838051;29;20041;-79
2021/10/09 11:12:47;;;;;;;24.02;20.45;;;17.10;80.30;;;;;;4843446;29;20037;-79
2021/10/09 11:15:28;;;;;;;22.50;20.30;;;17.10;80.20;;;;;;4856761;29;20041;-80
2021/10/09 11:18:04;;;;;;;24.05;20.52;;;17.10;80.10;;;;;;4852537;29;20494;-80
2021/10/09 11:20:38;;;;;;;22.73;20.33;;;17.20;80.10;;;;;;4836688;29;20052;-79
2021/10/09 11:23:08;;;;;;;23.98;21.40;;;17.20;80.50;;;;;;4838236;29;20415;-78
2021/10/09 11:25:42;;;;;;;22.48;20.08;;;17.30;80.10;;;;;;4838608;29;20727;-82
2021/10/09 11:28:19;;;;;;;22.58;20.35;;;17.40;80.10;;;;;;4843695;29;20049;-79
2021/10/09 11:30:46;;;;;;;24.48;21.73;;;17.40;79.90;;;;;;4855695;29;20093;-80
2021/10/09 11:33:12;;;;;;;23.17;20.77;;;17.50;80.00;;;;;;4839969;29;20312;-77
2021/10/09 11:35:39;;;;;;;21.27;18.92;;;17.50;79.80;;;;;;4856730;29;20048;-77
2021/10/09 11:38:20;;;;;;;22.23;19.92;;;17.60;79.90;;;;;;4856635;29;20402;-76
2021/10/09 11:40:51;;;;;;;22.85;19.65;;;17.70;80.00;;;;;;4854824;29;20112;-79
2021/10/09 11:46:31;;;;;;;26.13;20.67;;;17.80;79.70;;;;;;4838034;29;20030;-77
2021/10/09 11:55:03;;;;;;;19.88;17.88;;;18.00;79.50;;;;;;4854651;29;20052;-77
2021/10/09 11:57:22;;;;;;;18.55;16.65;;;18.10;79.50;;;;;;4856753;29;20136;-77
2021/10/09 11:59:48;;;;;;;20.33;18.23;;;18.20;79.50;;;;;;4854662;29;20128;-77
2021/10/09 12:02:36;;;;;;;20.25;18.08;;;18.20;79.30;;;;;;4856078;29;20481;-79
2021/10/09 12:05:03;;;;;;;21.02;18.92;;;18.30;79.30;;;;;;4855869;29;20037;-78
2021/10/09 12:07:29;;;;;;;20.30;18.20;;;18.40;79.30;;;;;;4855872;29;20079;-77
2021/10/09 12:09:59;;;;;;;22.38;20.13;;;18.40;79.20;;;;;;4855645;29;20496;-78
2021/10/09 12:12:31;;;;;;;21.80;19.05;;;18.50;79.30;;;;;;4854508;29;20065;-82
2021/10/09 12:14:58;;;;;;;21.02;18.92;;;18.50;79.10;;;;;;4855776;29;20582;-81
2021/10/09 12:17:35;;;;;;;21.38;19.25;;;18.60;79.20;;;;;;4839362;29;20165;-80
2021/10/09 12:20:06;;;;;;;19.98;17.83;;;18.70;79.20;;;;;;4851563;29;20033;-82
2021/10/09 12:22:47;;;;;;;20.77;18.58;;;18.70;79.10;;;;;;4836628;29;20509;-85
2021/10/09 12:25:26;;;;;;;20.67;18.67;;;18.80;79.10;;;;;;4836984;29;20505;-80
2021/10/09 12:27:57;;;;;;;19.17;17.38;;;18.90;79.10;;;;;;4837083;29;20045;-79
2021/10/09 12:30:46;;;;;;;22.17;19.80;;;19.00;79.10;;;;;;4836938;29;20486;-79
2021/10/09 12:33:35;;;;;;;20.17;18.08;;;19.10;79.10;;;;;;4835553;29;20048;-77
2021/10/09 12:36:31;;;;;;;20.08;18.08;;;19.20;79.10;;;;;;4836768;29;20565;-77
2021/10/09 12:39:16;;;;;;;19.95;17.95;;;19.30;79.10;;;;;;4836777;29;20046;-78
2021/10/09 12:41:42;;;;;;;19.42;17.42;;;19.40;79.10;;;;;;4836924;29;20090;-79
2021/10/09 12:44:08;;;;;;;18.42;16.27;;;19.50;79.10;;;;;;4835769;29;20128;-80
2021/10/09 12:46:34;;;;;;;15.75;14.25;;;19.70;79.20;;;;;;4842864;29;20038;-80
2021/10/09 12:49:00;;;;;;;17.83;16.08;;;19.70;79.00;;;;;;4843938;29;20038;-78
2021/10/09 12:51:26;;;;;;;17.30;15.63;;;19.80;78.90;;;;;;4837178;29;20407;-80
2021/10/09 12:53:55;;;;;;;17.92;16.08;;;19.90;78.90;;;;;;4836185;29;20030;-78
2021/10/09 12:56:21;;;;;;;17.65;15.88;;;20.00;78.90;;;;;;4837371;29;20505;-78
2021/10/09 12:58:47;;;;;;;18.45;16.63;;;20.10;78.70;;;;;;4845643;29;20037;-78
2021/10/09 13:01:13;;;;;;;18.33;16.52;;;20.20;78.60;;;;;;4855290;29;20038;-78
2021/10/09 13:03:39;;;;;;;16.83;14.55;;;20.40;78.70;;;;;;4854942;29;20065;-78
2021/10/09 13:06:05;;;;;;;17.13;15.40;;;20.40;78.40;;;;;;4853578;29;20129;-77
2021/10/09 13:08:31;;;;;;;17.58;15.88;;;20.50;78.40;;;;;;4838368;29;20116;-81
2021/10/09 13:10:59;;;;;;;18.00;16.27;;;20.60;78.30;;;;;;4854002;29;20184;-79
2021/10/09 13:13:25;;;;;;;16.17;14.63;;;20.60;78.10;;;;;;4853834;29;20029;-79
2021/10/09 13:15:51;;;;;;;15.38;13.88;;;20.70;78.10;;;;;;4855095;29;20037;-78
2021/10/09 13:18:17;;;;;;;16.50;15.00;;;20.80;78.00;;;;;;4848605;29;20142;-79
2021/10/09 13:20:43;;;;;;;15.02;13.52;;;20.90;78.00;;;;;;4837344;29;20041;-78
2021/10/09 13:23:09;;;;;;;15.77;14.27;;;21.00;77.80;;;;;;4835701;29;20267;-77
2021/10/09 13:25:35;;;;;;;15.15;13.55;;;21.00;77.50;;;;;;4836895;29;20105;-87
2021/10/09 13:28:02;;;;;;;15.48;13.93;;;21.00;77.30;;;;;;4837397;29;20041;-88
2021/10/09 13:30:28;;;;;;;16.08;14.57;;;21.10;77.20;;;;;;4837650;29;20054;-84
2021/10/09 13:32:54;;;;;;;14.45;13.05;;;21.20;77.10;;;;;;4839447;29;20030;-82
2021/10/09 13:35:19;;;;;;;15.57;14.18;;;21.30;76.90;;;;;;4841557;29;20122;-77
2021/10/09 13:38:00;;;;;;;15.50;14.10;;;21.40;76.80;;;;;;4835972;29;20583;-76
2021/10/09 13:40:26;;;;;;;13.50;12.20;;;21.50;76.60;;;;;;4835410;29;20486;-82
2021/10/09 13:42:52;;;;;;;14.50;13.00;;;21.60;76.60;;;;;;4836576;29;20045;-78
2021/10/09 13:45:19;;;;;;;15.43;14.02;;;21.60;76.20;;;;;;4837232;29;20459;-79
2021/10/09 13:47:45;;;;;;;14.60;13.30;;;21.70;76.10;;;;;;4849607;29;20170;-79
2021/10/09 13:50:14;;;;;;;14.35;13.02;;;21.70;75.90;;;;;;4837300;29;20042;-80
2021/10/09 13:52:41;;;;;;;14.40;13.10;;;21.70;75.80;;;;;;4836710;29;20058;-78
2021/10/09 13:55:08;;;;;;;14.13;12.82;;;21.70;75.60;;;;;;4837256;29;20129;-77
2021/10/09 13:57:34;;;;;;;15.80;14.05;;;21.80;76.10;;;;;;4836768;29;20030;-78
2021/10/09 14:00:00;;;;;;;15.52;14.02;;;21.80;75.40;;;;;;4854045;29;20034;-78
2021/10/09 14:02:30;;;;;;;14.13;12.82;;;21.80;75.30;;;;;;4853121;29;20505;-79
2021/10/09 14:04:56;;;;;;;14.43;12.85;;;21.80;75.10;;;;;;4836267;29;20463;-77
2021/10/09 14:07:22;;;;;;;13.68;12.38;;;21.90;75.10;;;;;;4836237;29;20090;-77
2021/10/09 14:09:48;;;;;;;14.10;12.65;;;21.90;74.90;;;;;;4852186;29;20156;-77
2021/10/09 14:12:14;;;;;;;14.38;12.98;;;21.80;74.60;;;;;;4837155;29;20457;-77
2021/10/09 14:14:40;;;;;;;13.80;12.43;;;21.90;74.70;;;;;;4854260;29;20390;-76
2021/10/09 14:17:07;;;;;;;14.00;12.45;;;21.90;74.60;;;;;;4854387;29;20046;-76
2021/10/09 14:19:33;;;;;;;13.63;12.45;;;21.90;74.50;;;;;;4838902;29;20095;-77
2021/10/09 14:21:59;;;;;;;14.57;13.18;;;21.90;74.50;;;;;;4836240;29;20053;-78
2021/10/09 14:24:25;;;;;;;13.27;11.98;;;21.90;74.40;;;;;;4836497;29;20034;-80
2021/10/09 14:26:50;;;;;;;13.38;12.15;;;21.90;74.20;;;;;;4835793;29;20034;-80
2021/10/09 14:29:16;;;;;;;14.23;12.73;;;21.90;74.10;;;;;;4835969;29;20052;-77
2021/10/09 14:31:42;;;;;;;14.45;12.98;;;22.00;74.20;;;;;;4840378;29;20037;-82
2021/10/09 14:34:08;;;;;;;13.80;12.40;;;22.00;74.20;;;;;;4840069;29;20034;-77
2021/10/09 14:36:34;;;;;;;14.10;12.60;;;22.00;74.10;;;;;;4839766;29;20037;-78
2021/10/09 14:39:01;;;;;;;13.23;12.05;;;22.00;74.10;;;;;;4839718;29;20090;-85
2021/10/09 14:41:27;;;;;;;13.85;12.48;;;22.00;74.10;;;;;;4838944;29;20038;-82
2021/10/09 14:43:53;;;;;;;15.10;13.52;;;22.00;74.00;;;;;;4840112;29;20046;-82
2021/10/09 14:48:48;;;;;;;12.40;11.27;;;21.90;73.80;;;;;;4848187;29;20058;-81
2021/10/09 15:16:22;;;;;;;12.60;11.43;;;21.70;73.30;;;;;;4838468;29;20038;-80
2021/10/09 15:18:37;;;;;;;11.50;10.15;;;21.40;73.30;;;;;;4850399;29;20486;-79
2021/10/09 15:21:03;;;;;;;11.02;10.02;;;21.40;73.40;;;;;;4840533;29;20037;-81
2021/10/09 15:23:29;;;;;;;11.13;10.02;;;21.30;73.30;;;;;;4839970;29;20687;-85
2021/10/09 15:25:55;;;;;;;10.77;9.82;;;21.30;73.30;;;;;;4840001;29;20041;-78
2021/10/09 15:28:21;;;;;;;10.32;9.32;;;21.20;73.20;;;;;;4840086;29;20036;-77